createdAt,value
2022-10-20T00:01:53.554Z,11.70
2022-10-20T00:04:20.373Z,11.70
2022-10-20T00:06:47.206Z,11.70
2022-10-20T00:09:13.988Z,11.70
2022-10-20T00:11:40.756Z,11.70
2022-10-20T00:14:07.526Z,11.60
2022-10-20T00:16:38.029Z,11.60
2022-10-20T00:19:05.498Z,11.60
2022-10-20T00:21:32.981Z,11.60
2022-10-20T00:24:01.502Z,11.50
2022-10-20T00:26:29.833Z,11.50
2022-10-20T00:28:57.185Z,11.50
2022-10-20T00:31:24.951Z,11.50
2022-10-20T00:33:52.256Z,11.50
2022-10-20T00:36:20.507Z,11.40
2022-10-20T00:38:47.706Z,11.40
2022-10-20T00:41:16.718Z,11.40
2022-10-20T00:43:56.300Z,11.40
2022-10-20T00:46:49.399Z,11.40
2022-10-20T00:49:20.476Z,11.40
2022-10-20T00:51:48.247Z,11.40
2022-10-20T00:54:19.353Z,11.30
2022-10-20T00:56:48.247Z,11.30
2022-10-20T00:59:19.027Z,11.30
2022-10-20T01:01:46.523Z,11.30
2022-10-20T01:04:13.758Z,11.30
2022-10-20T01:06:40.913Z,11.30
2022-10-20T01:09:08.312Z,11.20
2022-10-20T01:11:53.241Z,11.30
2022-10-20T01:14:37.502Z,11.30
2022-10-20T01:17:23.762Z,11.20
2022-10-20T01:20:12.459Z,11.20
2022-10-20T01:23:07.645Z,11.20
2022-10-20T01:25:55.794Z,11.30
2022-10-20T01:28:35.481Z,11.30
2022-10-20T01:31:09.066Z,11.30
2022-10-20T01:33:45.858Z,11.30
2022-10-20T01:36:34.017Z,11.20
2022-10-20T01:39:23.980Z,11.20
2022-10-20T01:41:58.756Z,11.20
2022-10-20T01:44:27.969Z,11.20
2022-10-20T01:46:56.701Z,11.20
2022-10-20T01:49:23.909Z,11.20
2022-10-20T01:51:50.991Z,11.20
2022-10-20T01:54:26.760Z,11.10
2022-10-20T01:57:18.305Z,11.10
2022-10-20T01:59:51.141Z,11.20
2022-10-20T02:02:17.803Z,11.20
2022-10-20T02:05:12.887Z,11.20
2022-10-20T02:07:41.741Z,11.20
2022-10-20T02:10:23.162Z,11.20
2022-10-20T02:12:55.113Z,11.10
2022-10-20T02:15:25.727Z,11.20
2022-10-20T02:18:00.815Z,11.20
2022-10-20T02:20:29.570Z,11.20
2022-10-20T02:22:58.742Z,11.20
2022-10-20T02:25:28.004Z,11.20
2022-10-20T02:27:56.688Z,11.20
2022-10-20T02:30:23.671Z,11.20
2022-10-20T02:32:52.884Z,11.20
2022-10-20T02:35:28.986Z,11.20
2022-10-20T02:37:56.833Z,11.30
2022-10-20T02:40:23.614Z,11.30
2022-10-20T02:42:50.467Z,11.30
2022-10-20T02:45:17.344Z,11.30
2022-10-20T02:47:44.227Z,11.30
2022-10-20T02:50:11.341Z,11.30
2022-10-20T02:52:38.319Z,11.30
2022-10-20T02:55:06.440Z,11.30
2022-10-20T02:57:33.547Z,11.30
2022-10-20T03:00:00.486Z,11.40
2022-10-20T03:02:27.242Z,11.40
2022-10-20T03:04:53.988Z,11.30
2022-10-20T03:07:20.752Z,11.30
2022-10-20T03:09:47.678Z,11.40
2022-10-20T03:12:14.416Z,11.30
2022-10-20T03:14:42.815Z,11.30
2022-10-20T03:17:09.803Z,11.30
2022-10-20T03:19:36.573Z,11.30
2022-10-20T03:22:03.318Z,11.30
2022-10-20T03:24:30.075Z,11.30
2022-10-20T03:26:56.844Z,11.30
2022-10-20T03:29:23.799Z,11.30
2022-10-20T03:34:22.232Z,11.40
2022-10-20T03:36:48.982Z,11.40
2022-10-20T03:39:15.709Z,11.40
2022-10-20T03:41:42.488Z,11.40
2022-10-20T03:44:10.705Z,11.40
2022-10-20T03:46:37.558Z,11.40
2022-10-20T03:49:04.452Z,11.40
2022-10-20T03:51:31.175Z,11.40
2022-10-20T03:53:57.922Z,11.40
2022-10-20T03:56:24.697Z,11.40
2022-10-20T03:58:51.555Z,11.40
2022-10-20T04:01:21.524Z,11.40
2022-10-20T04:03:48.521Z,11.40
2022-10-20T04:06:15.738Z,11.40
2022-10-20T04:08:42.625Z,11.40
2022-10-20T04:11:09.443Z,11.40
2022-10-20T04:13:36.286Z,11.40
2022-10-20T04:16:03.016Z,11.40
2022-10-20T04:18:30.110Z,11.40
2022-10-20T04:20:56.859Z,11.40
2022-10-20T04:23:23.615Z,11.50
2022-10-20T04:25:50.677Z,11.50
2022-10-20T04:28:20.099Z,11.50
2022-10-20T04:30:47.720Z,11.50
2022-10-20T04:33:14.555Z,11.50
2022-10-20T04:35:41.587Z,11.50
2022-10-20T04:38:08.642Z,11.50
2022-10-20T04:40:35.450Z,11.50
2022-10-20T04:43:02.163Z,11.60
2022-10-20T04:45:28.901Z,11.50
2022-10-20T04:47:55.833Z,11.50
2022-10-20T04:50:22.590Z,11.60
2022-10-20T04:52:59.230Z,11.60
2022-10-20T04:55:25.962Z,11.60
2022-10-20T04:57:52.740Z,11.60
2022-10-20T05:00:19.574Z,11.50
2022-10-20T05:02:46.376Z,11.50
2022-10-20T05:05:13.212Z,11.60
2022-10-20T05:07:40.256Z,11.60
2022-10-20T05:10:07.670Z,11.50
2022-10-20T05:12:34.878Z,11.50
2022-10-20T05:15:01.930Z,11.50
2022-10-20T05:17:31.755Z,11.50
2022-10-20T05:19:58.488Z,11.50
2022-10-20T05:22:25.217Z,11.60
2022-10-20T05:24:52.059Z,11.50
2022-10-20T05:27:18.841Z,11.50
2022-10-20T05:29:45.801Z,11.60
2022-10-20T05:32:12.646Z,11.60
2022-10-20T05:34:39.448Z,11.60
2022-10-20T05:37:08.718Z,11.60
2022-10-20T05:39:35.824Z,11.60
2022-10-20T05:42:02.686Z,11.60
2022-10-20T05:44:31.766Z,11.60
2022-10-20T05:46:58.596Z,11.60
2022-10-20T05:49:25.371Z,11.60
2022-10-20T05:51:55.064Z,11.60
2022-10-20T05:54:22.135Z,11.60
2022-10-20T05:56:48.975Z,11.60
2022-10-20T05:59:18.190Z,11.60
2022-10-20T06:01:48.448Z,11.60
2022-10-20T06:04:23.752Z,11.60
2022-10-20T06:06:52.181Z,11.60
2022-10-20T06:09:21.442Z,11.70
2022-10-20T06:11:48.715Z,11.60
2022-10-20T06:14:17.232Z,11.60
2022-10-20T06:16:44.511Z,11.70
2022-10-20T06:19:11.369Z,11.70
2022-10-20T06:21:38.303Z,11.70
2022-10-20T06:24:09.636Z,11.70
2022-10-20T06:26:37.249Z,11.70
2022-10-20T06:29:11.564Z,11.70
2022-10-20T06:31:40.484Z,11.70
2022-10-20T06:34:12.597Z,11.70
2022-10-20T06:36:40.515Z,11.80
2022-10-20T06:39:12.576Z,11.80
2022-10-20T06:41:39.998Z,11.80
2022-10-20T06:44:14.362Z,11.80
2022-10-20T06:46:41.272Z,11.80
2022-10-20T06:49:09.504Z,11.80
2022-10-20T06:51:38.689Z,11.80
2022-10-20T06:54:06.084Z,11.90
2022-10-20T06:56:34.698Z,11.90
2022-10-20T06:59:04.390Z,11.90
2022-10-20T07:01:33.919Z,11.90
2022-10-20T07:04:03.793Z,12.00
2022-10-20T07:06:37.575Z,12.00
2022-10-20T07:09:08.337Z,12.00
2022-10-20T07:11:35.945Z,12.10
2022-10-20T07:14:11.675Z,12.10
2022-10-20T07:16:38.619Z,12.20
2022-10-20T07:19:13.381Z,12.20
2022-10-20T07:21:45.292Z,12.30
2022-10-20T07:24:19.665Z,12.30
2022-10-20T07:26:58.592Z,12.30
2022-10-20T07:32:05.940Z,12.50
2022-10-20T07:34:41.962Z,12.50
2022-10-20T07:37:08.720Z,12.60
2022-10-20T07:39:35.553Z,12.60
2022-10-20T07:42:04.517Z,12.70
2022-10-20T07:44:31.305Z,12.70
2022-10-20T07:46:59.935Z,12.80
2022-10-20T07:52:13.603Z,12.80
2022-10-20T07:54:45.590Z,12.90
2022-10-20T07:57:12.426Z,12.90
2022-10-20T07:59:39.207Z,13.00
2022-10-20T08:02:09.756Z,13.00
2022-10-20T08:04:36.590Z,13.00
2022-10-20T08:07:04.568Z,13.00
2022-10-20T08:09:33.649Z,13.10
2022-10-20T08:12:00.810Z,13.10
2022-10-20T08:14:37.936Z,13.10
2022-10-20T08:17:05.245Z,13.10
2022-10-20T08:22:21.347Z,13.20
2022-10-20T08:24:48.232Z,13.20
2022-10-20T08:27:15.259Z,13.30
2022-10-20T08:29:50.805Z,13.30
2022-10-20T08:32:26.941Z,13.30
2022-10-20T08:34:53.867Z,13.40
2022-10-20T08:37:20.727Z,13.40
2022-10-20T08:39:47.587Z,13.40
2022-10-20T08:42:14.406Z,13.50
2022-10-20T08:44:47.482Z,13.50
2022-10-20T08:47:35.257Z,13.60
2022-10-20T08:50:09.461Z,13.60
2022-10-20T08:52:36.291Z,13.60
2022-10-20T08:55:07.419Z,13.70
2022-10-20T08:57:36.482Z,13.70
2022-10-20T09:00:17.401Z,13.70
2022-10-20T09:02:44.419Z,13.80
2022-10-20T09:05:18.335Z,13.80
2022-10-20T09:07:55.263Z,13.80
2022-10-20T09:10:40.776Z,13.90
2022-10-20T09:13:25.265Z,13.90
2022-10-20T09:16:05.068Z,13.90
2022-10-20T09:18:36.525Z,14.00
2022-10-20T09:21:15.784Z,14.00
2022-10-20T09:23:45.612Z,14.00
2022-10-20T09:26:37.356Z,14.10
2022-10-20T09:29:15.150Z,14.10
2022-10-20T09:31:47.043Z,14.10
2022-10-20T09:34:26.431Z,14.10
2022-10-20T09:37:07.003Z,14.20
2022-10-20T09:39:56.059Z,14.30
2022-10-20T09:42:34.160Z,14.30
2022-10-20T09:45:16.457Z,14.30
2022-10-20T09:47:53.388Z,14.40
2022-10-20T09:50:34.403Z,14.40
2022-10-20T09:53:04.784Z,14.40
2022-10-20T09:55:37.897Z,14.50
2022-10-20T09:58:05.772Z,14.50
2022-10-20T10:00:46.246Z,14.50
2022-10-20T10:03:22.337Z,14.60
2022-10-20T10:05:56.683Z,14.60
2022-10-20T10:08:30.467Z,14.70
2022-10-20T10:11:04.734Z,14.70
2022-10-20T10:13:41.522Z,14.80
2022-10-20T10:16:11.796Z,14.80
2022-10-20T10:18:48.508Z,14.90
2022-10-20T10:21:19.712Z,14.90
2022-10-20T10:24:01.177Z,15.00
2022-10-20T10:26:51.859Z,15.00
2022-10-20T10:29:25.239Z,15.10
2022-10-20T10:32:15.728Z,15.10
2022-10-20T10:35:01.059Z,15.20
2022-10-20T10:37:32.314Z,15.30
2022-10-20T10:40:11.816Z,15.30
2022-10-20T10:42:51.431Z,15.40
2022-10-20T10:45:25.203Z,15.50
2022-10-20T10:48:08.137Z,15.50
2022-10-20T10:50:57.664Z,15.60
2022-10-20T10:53:37.017Z,15.60
2022-10-20T10:56:16.335Z,15.60
2022-10-20T10:58:48.432Z,15.60
2022-10-20T11:01:49.502Z,15.70
2022-10-20T11:04:27.468Z,15.70
2022-10-20T11:07:07.571Z,15.70
2022-10-20T11:10:03.432Z,15.70
2022-10-20T11:13:09.396Z,15.80
2022-10-20T11:15:55.006Z,15.80
2022-10-20T11:19:00.910Z,15.80
2022-10-20T11:21:55.980Z,15.90
2022-10-20T11:24:35.665Z,15.90
2022-10-20T11:27:25.255Z,16.00
2022-10-20T11:30:15.552Z,16.00
2022-10-20T11:32:45.730Z,16.10
2022-10-20T11:35:42.285Z,16.10
2022-10-20T11:38:14.814Z,16.10
2022-10-20T11:40:55.272Z,16.10
2022-10-20T11:43:47.577Z,16.10
2022-10-20T11:46:25.072Z,16.20
2022-10-20T11:49:00.294Z,16.10
2022-10-20T11:51:30.056Z,16.10
2022-10-20T11:54:21.444Z,16.20
2022-10-20T11:57:26.749Z,16.20
2022-10-20T12:00:04.633Z,16.20
2022-10-20T12:03:10.883Z,16.20
2022-10-20T12:06:11.503Z,16.20
2022-10-20T12:09:05.583Z,16.30
2022-10-20T12:11:58.772Z,16.30
2022-10-20T12:14:44.412Z,16.30
2022-10-20T12:17:36.044Z,16.30
2022-10-20T12:20:21.120Z,16.40
2022-10-20T12:22:55.717Z,16.40
2022-10-20T12:25:35.569Z,16.40
2022-10-20T12:28:20.792Z,16.40
2022-10-20T12:30:59.268Z,16.40
2022-10-20T12:33:51.895Z,16.40
2022-10-20T12:36:37.238Z,16.40
2022-10-20T12:39:17.085Z,16.30
2022-10-20T12:42:01.533Z,16.30
2022-10-20T12:44:32.107Z,16.30
2022-10-20T12:47:08.098Z,16.20
2022-10-20T12:49:57.924Z,16.20
2022-10-20T12:52:29.908Z,16.10
2022-10-20T12:55:06.808Z,16.20
2022-10-20T12:57:41.748Z,16.20
2022-10-20T13:00:30.561Z,16.10
2022-10-20T13:02:58.626Z,16.10
2022-10-20T13:05:42.265Z,16.10
2022-10-20T13:08:21.200Z,16.10
2022-10-20T13:10:50.226Z,16.10
2022-10-20T13:13:19.950Z,16.10
2022-10-20T13:15:49.293Z,16.10
2022-10-20T13:18:20.411Z,16.10
2022-10-20T13:21:08.562Z,16.10
2022-10-20T13:23:41.950Z,16.10
2022-10-20T13:26:25.357Z,16.10
2022-10-20T13:28:53.336Z,16.20
2022-10-20T13:31:34.795Z,16.20
2022-10-20T13:34:33.680Z,16.20
2022-10-20T13:37:25.967Z,16.30
2022-10-20T13:40:08.335Z,16.30
2022-10-20T13:42:54.097Z,16.30
2022-10-20T13:45:29.975Z,16.40
2022-10-20T13:48:02.730Z,16.30
2022-10-20T13:50:33.993Z,16.40
2022-10-20T13:53:10.405Z,16.40
2022-10-20T13:55:58.536Z,16.40
2022-10-20T13:58:33.697Z,16.40
2022-10-20T14:01:16.825Z,16.40
2022-10-20T14:03:50.584Z,16.40
2022-10-20T14:06:37.440Z,16.40
2022-10-20T14:09:21.759Z,16.40
2022-10-20T14:11:59.365Z,16.40
2022-10-20T14:14:29.063Z,16.40
2022-10-20T14:16:59.324Z,16.40
2022-10-20T14:19:37.229Z,16.40
2022-10-20T14:22:18.740Z,16.30
2022-10-20T14:24:48.403Z,16.30
2022-10-20T14:27:21.342Z,16.30
2022-10-20T14:29:49.028Z,16.30
2022-10-20T14:32:23.847Z,16.20
2022-10-20T14:35:25.907Z,16.20
2022-10-20T14:38:06.009Z,16.20
2022-10-20T14:40:37.842Z,16.20
2022-10-20T14:43:16.644Z,16.10
2022-10-20T14:45:56.588Z,16.20
2022-10-20T14:48:31.011Z,16.10
2022-10-20T14:50:57.759Z,16.20
2022-10-20T14:53:29.785Z,16.10
2022-10-20T14:56:00.663Z,16.10
2022-10-20T14:58:54.232Z,16.20
2022-10-20T15:01:34.831Z,16.20
2022-10-20T15:04:10.905Z,16.10
2022-10-20T15:06:39.973Z,16.10
2022-10-20T15:09:18.011Z,16.10
2022-10-20T15:11:45.000Z,16.10
2022-10-20T15:14:18.592Z,16.10
2022-10-20T15:16:47.531Z,16.10
2022-10-20T15:19:34.161Z,16.10
2022-10-20T15:22:02.200Z,16.10
2022-10-20T15:24:29.343Z,16.10
2022-10-20T15:26:57.115Z,16.10
2022-10-20T15:29:27.807Z,16.00
2022-10-20T15:31:57.172Z,16.00
2022-10-20T15:34:28.380Z,16.00
2022-10-20T15:36:55.469Z,16.00
2022-10-20T15:39:22.252Z,16.00
2022-10-20T15:41:53.083Z,16.00
2022-10-20T15:44:22.566Z,16.00
2022-10-20T15:46:53.502Z,16.00
2022-10-20T15:49:20.564Z,16.00
2022-10-20T15:51:49.826Z,15.90
2022-10-20T15:54:19.925Z,15.90
2022-10-20T15:56:47.003Z,15.90
2022-10-20T15:59:19.013Z,15.90
2022-10-20T16:01:45.759Z,15.90
2022-10-20T16:04:26.104Z,15.80
2022-10-20T16:06:58.883Z,15.80
2022-10-20T16:09:28.647Z,15.80
2022-10-20T16:11:55.364Z,15.80
2022-10-20T16:14:22.114Z,15.80
2022-10-20T16:16:50.957Z,15.80
2022-10-20T16:19:17.649Z,15.70
2022-10-20T16:21:46.850Z,15.70
2022-10-20T16:24:13.679Z,15.70
2022-10-20T16:26:40.466Z,15.70
2022-10-20T16:29:07.175Z,15.70
2022-10-20T16:31:33.855Z,15.70
2022-10-20T16:34:00.598Z,15.60
2022-10-20T16:36:27.385Z,15.70
2022-10-20T16:38:57.475Z,15.70
2022-10-20T16:41:24.363Z,15.60
2022-10-20T16:43:51.092Z,15.60
2022-10-20T16:46:20.354Z,15.60
2022-10-20T16:48:48.235Z,15.60
2022-10-20T16:51:20.580Z,15.60
2022-10-20T16:53:48.240Z,15.60
2022-10-20T16:56:18.197Z,15.60
2022-10-20T16:58:47.704Z,15.60
2022-10-20T17:01:15.999Z,15.60
2022-10-20T17:03:45.658Z,15.50
2022-10-20T17:06:13.628Z,15.50
2022-10-20T17:08:47.060Z,15.50
2022-10-20T17:11:20.651Z,15.50
2022-10-20T17:13:47.563Z,15.50
2022-10-20T17:16:16.986Z,15.50
2022-10-20T17:18:46.435Z,15.50
2022-10-20T17:21:16.247Z,15.50
2022-10-20T17:23:44.410Z,15.50
2022-10-20T17:26:22.870Z,15.50
2022-10-20T17:28:52.511Z,15.50
2022-10-20T17:31:19.499Z,15.50
2022-10-20T17:33:46.846Z,15.40
2022-10-20T17:36:14.280Z,15.50
2022-10-20T17:38:41.997Z,15.40
2022-10-20T17:41:11.492Z,15.40
2022-10-20T17:43:38.590Z,15.40
2022-10-20T17:46:11.349Z,15.40
2022-10-20T17:48:40.732Z,15.40
2022-10-20T17:51:12.735Z,15.40
2022-10-20T17:53:41.921Z,15.50
2022-10-20T17:56:12.664Z,15.40
2022-10-20T17:58:42.405Z,15.40
2022-10-20T18:01:15.818Z,15.40
2022-10-20T18:03:45.625Z,15.40
2022-10-20T18:06:20.106Z,15.40
2022-10-20T18:08:49.883Z,15.40
2022-10-20T18:11:19.378Z,15.40
2022-10-20T18:13:46.831Z,15.40
2022-10-20T18:16:21.833Z,15.40
2022-10-20T18:18:49.888Z,15.40
2022-10-20T18:21:20.480Z,15.40
2022-10-20T18:23:48.295Z,15.40
2022-10-20T18:26:19.943Z,15.40
2022-10-20T18:28:48.548Z,15.40
2022-10-20T18:31:24.016Z,15.40
2022-10-20T18:34:01.289Z,15.40
2022-10-20T18:36:31.195Z,15.40
2022-10-20T18:39:01.348Z,15.40
2022-10-20T18:41:30.565Z,15.40
2022-10-20T18:44:01.857Z,15.40
2022-10-20T18:46:29.929Z,15.40
2022-10-20T18:48:57.413Z,15.40
2022-10-20T18:51:27.021Z,15.40
2022-10-20T18:53:56.368Z,15.30
2022-10-20T18:56:25.526Z,15.30
2022-10-20T18:59:00.702Z,15.30
2022-10-20T19:01:32.867Z,15.30
2022-10-20T19:04:00.638Z,15.30
2022-10-20T19:06:32.964Z,15.30
2022-10-20T19:09:01.950Z,15.30
2022-10-20T19:11:31.347Z,15.30
2022-10-20T19:13:58.566Z,15.30
2022-10-20T19:16:28.592Z,15.30
2022-10-20T19:18:57.018Z,15.30
2022-10-20T19:21:24.783Z,15.30
2022-10-20T19:24:03.420Z,15.30
2022-10-20T19:26:32.899Z,15.20
2022-10-20T19:29:09.865Z,15.30
2022-10-20T19:31:46.734Z,15.30
2022-10-20T19:34:20.238Z,15.20
2022-10-20T19:36:49.422Z,15.20
2022-10-20T19:41:58.373Z,15.20
2022-10-20T19:44:25.513Z,15.20
2022-10-20T19:46:52.460Z,15.20
2022-10-20T19:49:20.713Z,15.20
2022-10-20T19:51:50.276Z,15.20
2022-10-20T19:54:17.328Z,15.20
2022-10-20T19:56:44.155Z,15.20
2022-10-20T19:59:12.498Z,15.20
2022-10-20T20:01:41.666Z,15.20
2022-10-20T20:04:08.443Z,15.20
2022-10-20T20:06:35.684Z,15.20
2022-10-20T20:09:06.452Z,15.10
2022-10-20T20:11:37.383Z,15.20
2022-10-20T20:14:10.672Z,15.20
2022-10-20T20:16:40.436Z,15.10
2022-10-20T20:19:07.392Z,15.10
2022-10-20T20:21:34.121Z,15.10
2022-10-20T20:24:03.632Z,15.20
2022-10-20T20:26:34.975Z,15.10
2022-10-20T20:29:01.999Z,15.10
2022-10-20T20:31:28.934Z,15.10
2022-10-20T20:33:59.125Z,15.10
2022-10-20T20:36:28.340Z,15.10
2022-10-20T20:38:57.846Z,15.10
2022-10-20T20:41:26.887Z,15.10
2022-10-20T20:43:54.344Z,15.10
2022-10-20T20:46:23.025Z,15.10
2022-10-20T20:48:50.214Z,15.10
2022-10-20T20:51:17.197Z,15.10
2022-10-20T20:53:43.977Z,15.10
2022-10-20T20:56:13.048Z,15.10
2022-10-20T20:58:41.829Z,15.10
2022-10-20T21:01:08.666Z,15.10
2022-10-20T21:03:36.054Z,15.10
2022-10-20T21:06:07.808Z,15.10
2022-10-20T21:08:36.403Z,15.20
2022-10-20T21:11:15.419Z,15.10
2022-10-20T21:13:43.423Z,15.10
2022-10-20T21:16:19.785Z,15.10
2022-10-20T21:18:48.908Z,15.10
2022-10-20T21:21:23.835Z,15.10
2022-10-20T21:23:51.434Z,15.20
2022-10-20T21:26:20.087Z,15.10
2022-10-20T21:28:47.726Z,15.10
2022-10-20T21:31:18.429Z,15.10
2022-10-20T21:33:46.465Z,15.00
2022-10-20T21:36:15.853Z,15.00
2022-10-20T21:38:44.032Z,15.00
2022-10-20T21:41:22.791Z,14.90
2022-10-20T21:43:54.824Z,14.90
2022-10-20T21:46:23.508Z,14.90
2022-10-20T21:48:52.277Z,14.90
2022-10-20T21:51:23.348Z,14.80
2022-10-20T21:53:54.062Z,14.80
2022-10-20T21:56:20.743Z,14.80
2022-10-20T21:58:47.428Z,14.70
2022-10-20T22:01:18.405Z,14.70
2022-10-20T22:03:47.120Z,14.70
2022-10-20T22:06:16.157Z,14.70
2022-10-20T22:08:46.435Z,14.70
2022-10-20T22:11:16.116Z,14.70
2022-10-20T22:13:43.264Z,14.70
2022-10-20T22:16:13.351Z,14.70
2022-10-20T22:18:40.062Z,14.70
2022-10-20T22:21:12.466Z,14.70
2022-10-20T22:23:40.385Z,14.70
2022-10-20T22:26:07.088Z,14.70
2022-10-20T22:28:33.837Z,14.70
2022-10-20T22:33:32.812Z,14.70
2022-10-20T22:35:59.542Z,14.60
2022-10-20T22:38:26.255Z,14.70
2022-10-20T22:40:57.082Z,14.60
2022-10-20T22:43:23.727Z,14.60
2022-10-20T22:45:50.392Z,14.60
2022-10-20T22:48:17.069Z,14.50
2022-10-20T22:50:43.755Z,14.60
2022-10-20T22:53:10.839Z,14.50
2022-10-20T22:55:37.689Z,14.50
2022-10-20T22:58:04.822Z,14.50
2022-10-20T23:00:31.837Z,14.40
2022-10-20T23:02:58.633Z,14.40
2022-10-20T23:05:25.702Z,14.40
2022-10-20T23:07:52.530Z,14.30
2022-10-20T23:10:19.599Z,14.30
2022-10-20T23:12:46.370Z,14.30
2022-10-20T23:15:13.053Z,14.20
2022-10-20T23:17:39.963Z,14.20
2022-10-20T23:20:07.243Z,14.20
2022-10-20T23:22:33.974Z,14.20
2022-10-20T23:25:02.134Z,14.10
2022-10-20T23:27:28.835Z,14.10
2022-10-20T23:29:55.815Z,14.10
2022-10-20T23:32:22.519Z,14.00
2022-10-20T23:34:49.233Z,14.00
2022-10-20T23:37:19.511Z,14.00
2022-10-20T23:39:46.677Z,14.00
2022-10-20T23:42:13.427Z,13.90
2022-10-20T23:44:40.150Z,13.90
2022-10-20T23:47:06.892Z,13.90
2022-10-20T23:49:33.594Z,13.90
2022-10-20T23:52:00.337Z,13.90
2022-10-20T23:54:27.010Z,13.80
2022-10-20T23:56:53.680Z,13.80
2022-10-20T23:59:20.327Z,13.80
